Time,TemperatureF,DewpointF,PressureIn,WindDirection,WindDirectionDegrees,WindSpeedMPH,WindSpeedGustMPH,Humidity,HourlyPrecipIn,Conditions,Clouds,dailyrainin,SoftwareType,DateUTC
2013-03-28 00:00:00,31.6,23.3,30.24,WNW,293,0.0,0.0,71,0.00,,,0.00,WUHU216HW,2013-03-28 04:00:00,
2013-03-28 00:05:00,31.6,23.3,30.24,WNW,293,0.0,0.0,71,0.00,,,0.00,WUHU216HW,2013-03-28 04:05:00,
2013-03-28 00:10:00,31.2,22.9,30.24,WNW,293,0.0,0.0,71,0.00,,,0.00,WUHU216HW,2013-03-28 04:10:00,
2013-03-28 00:15:00,31.1,22.7,30.24,WNW,293,0.0,0.0,71,0.00,,,0.00,WUHU216HW,2013-03-28 04:15:00,
2013-03-28 00:21:00,30.9,22.9,30.24,WNW,293,0.0,0.0,72,0.00,,,0.00,WUHU216HW,2013-03-28 04:21:00,
2013-03-28 00:26:00,30.9,22.9,30.24,WNW,293,0.0,0.0,72,0.00,,,0.00,WUHU216HW,2013-03-28 04:26:00,
2013-03-28 00:31:00,30.7,22.7,30.24,WNW,293,0.0,0.0,72,0.00,,,0.00,WUHU216HW,2013-03-28 04:31:00,
2013-03-28 00:36:00,30.7,23.0,30.24,WNW,293,0.0,0.0,73,0.00,,,0.00,WUHU216HW,2013-03-28 04:36:00,
2013-03-28 00:41:00,30.5,22.8,30.24,WNW,293,0.0,0.0,73,0.00,,,0.00,WUHU216HW,2013-03-28 04:41:00,
2013-03-28 00:46:00,30.5,22.8,30.24,WNW,293,0.0,0.0,73,0.00,,,0.00,WUHU216HW,2013-03-28 04:46:00,
2013-03-28 00:51:00,30.3,22.7,30.24,WNW,293,0.0,0.0,73,0.00,,,0.00,WUHU216HW,2013-03-28 04:51:00,
2013-03-28 00:56:00,30.3,22.7,30.24,WNW,293,0.0,0.0,73,0.00,,,0.00,WUHU216HW,2013-03-28 04:56:00,
2013-03-28 01:01:00,30.3,22.7,30.24,WNW,293,0.0,0.0,73,0.00,,,0.00,WUHU216HW,2013-03-28 05:01:00,
2013-03-28 01:06:00,30.3,22.7,30.24,WNW,293,0.0,0.0,73,0.00,,,0.00,WUHU216HW,2013-03-28 05:06:00,
2013-03-28 01:11:00,30.2,22.5,30.23,WNW,293,0.0,0.0,73,0.00,,,0.00,WUHU216HW,2013-03-28 05:11:00,
2013-03-28 01:16:00,30.2,22.5,30.24,WNW,293,0.0,0.0,73,0.00,,,0.00,WUHU216HW,2013-03-28 05:16:00,
2013-03-28 01:21:00,30.0,22.3,30.24,WNW,293,0.0,0.0,73,0.00,,,0.00,WUHU216HW,2013-03-28 05:21:00,
2013-03-28 01:26:00,30.0,22.3,30.24,WNW,293,0.0,0.0,73,0.00,,,0.00,WUHU216HW,2013-03-28 05:26:00,
2013-03-28 01:31:00,30.0,22.3,30.24,WNW,293,0.0,0.0,73,0.00,,,0.00,WUHU216HW,2013-03-28 05:31:00,
2013-03-28 01:36:00,29.8,22.1,30.24,WNW,293,0.0,0.0,73,0.00,,,0.00,WUHU216HW,2013-03-28 05:36:00,
2013-03-28 01:41:00,29.6,22.3,30.24,WNW,293,0.0,0.0,74,0.00,,,0.00,WUHU216HW,2013-03-28 05:41:00,
2013-03-28 01:46:00,29.4,22.1,30.23,WNW,293,0.0,0.0,74,0.00,,,0.00,WUHU216HW,2013-03-28 05:46:00,
2013-03-28 01:51:00,29.4,22.1,30.23,WNW,293,0.0,0.0,74,0.00,,,0.00,WUHU216HW,2013-03-28 05:51:00,
2013-03-28 01:56:00,29.3,22.0,30.24,WNW,293,0.0,0.0,74,0.00,,,0.00,WUHU216HW,2013-03-28 05:56:00,
2013-03-28 02:01:00,29.3,22.0,30.24,WNW,293,0.0,0.0,74,0.00,,,0.00,WUHU216HW,2013-03-28 06:01:00,
2013-03-28 02:06:00,29.1,21.8,30.24,WNW,293,0.0,0.0,74,0.00,,,0.00,WUHU216HW,2013-03-28 06:06:00,
2013-03-28 02:11:00,29.1,21.8,30.24,WNW,293,0.0,0.0,74,0.00,,,0.00,WUHU216HW,2013-03-28 06:11:00,
2013-03-28 02:16:00,29.1,21.8,30.24,WNW,293,0.0,0.0,74,0.00,,,0.00,WUHU216HW,2013-03-28 06:16:00,
2013-03-28 02:21:00,28.9,21.6,30.25,WNW,293,0.0,0.0,74,0.00,,,0.00,WUHU216HW,2013-03-28 06:21:00,
2013-03-28 02:26:00,28.7,21.8,30.25,WNW,293,0.0,0.0,75,0.00,,,0.00,WUHU216HW,2013-03-28 06:26:00,
2013-03-28 02:31:00,28.7,21.8,30.24,WNW,293,0.0,0.0,75,0.00,,,0.00,WUHU216HW,2013-03-28 06:31:00,
2013-03-28 02:36:00,28.5,21.6,30.24,WNW,293,0.0,0.0,75,0.00,,,0.00,WUHU216HW,2013-03-28 06:36:00,
2013-03-28 02:41:00,28.5,21.6,30.24,WNW,293,0.0,0.0,75,0.00,,,0.00,WUHU216HW,2013-03-28 06:41:00,
2013-03-28 02:46:00,28.4,21.4,30.24,WNW,293,0.0,0.0,75,0.00,,,0.00,WUHU216HW,2013-03-28 06:46:00,
2013-03-28 02:51:00,28.2,21.2,30.24,WNW,293,0.0,0.0,75,0.00,,,0.00,WUHU216HW,2013-03-28 06:51:00,
2013-03-28 02:56:00,28.2,21.2,30.24,WNW,293,0.0,0.0,75,0.00,,,0.00,WUHU216HW,2013-03-28 06:56:00,
2013-03-28 03:01:00,28.2,21.2,30.24,WNW,293,0.0,0.0,75,0.00,,,0.00,WUHU216HW,2013-03-28 07:01:00,
2013-03-28 03:06:00,28.0,21.1,30.24,WNW,293,0.0,0.0,75,0.00,,,0.00,WUHU216HW,2013-03-28 07:06:00,
2013-03-28 03:12:00,28.0,21.1,30.24,WNW,293,0.0,0.0,75,0.00,,,0.00,WUHU216HW,2013-03-28 07:12:00,
2013-03-28 03:17:00,28.0,21.1,30.24,WNW,293,0.0,0.0,75,0.00,,,0.00,WUHU216HW,2013-03-28 07:17:00,
2013-03-28 03:22:00,27.8,20.9,30.24,WNW,293,0.0,0.0,75,0.00,,,0.00,WUHU216HW,2013-03-28 07:22:00,
2013-03-28 03:27:00,27.6,20.7,30.24,WNW,293,0.0,0.0,75,0.00,,,0.00,WUHU216HW,2013-03-28 07:27:00,
2013-03-28 03:32:00,27.6,20.7,30.24,WNW,293,0.0,0.0,75,0.00,,,0.00,WUHU216HW,2013-03-28 07:32:00,
2013-03-28 03:37:00,27.5,20.5,30.24,WNW,293,0.0,0.0,75,0.00,,,0.00,WUHU216HW,2013-03-28 07:37:00,
2013-03-28 03:42:00,27.5,20.5,30.24,WNW,293,0.0,0.0,75,0.00,,,0.00,WUHU216HW,2013-03-28 07:42:00,
2013-03-28 03:47:00,27.3,20.6,30.24,WNW,293,0.0,0.0,76,0.00,,,0.00,WUHU216HW,2013-03-28 07:47:00,
2013-03-28 03:52:00,27.3,20.6,30.24,WNW,293,0.0,0.0,76,0.00,,,0.00,WUHU216HW,2013-03-28 07:52:00,
2013-03-28 03:57:00,27.1,20.5,30.24,WNW,293,0.0,0.0,76,0.00,,,0.00,WUHU216HW,2013-03-28 07:57:00,
2013-03-28 04:02:00,27.1,20.5,30.24,WNW,293,0.0,0.0,76,0.00,,,0.00,WUHU216HW,2013-03-28 08:02:00,
2013-03-28 04:07:00,26.9,20.3,30.24,WNW,293,0.0,0.0,76,0.00,,,0.00,WUHU216HW,2013-03-28 08:07:00,
2013-03-28 04:12:00,26.7,20.1,30.24,WNW,293,0.0,0.0,76,0.00,,,0.00,WUHU216HW,2013-03-28 08:12:00,
2013-03-28 04:17:00,26.7,20.1,30.25,WNW,293,0.0,0.0,76,0.00,,,0.00,WUHU216HW,2013-03-28 08:17:00,
2013-03-28 04:22:00,26.6,19.9,30.24,WNW,293,0.0,0.0,76,0.00,,,0.00,WUHU216HW,2013-03-28 08:22:00,
2013-03-28 04:27:00,26.6,19.9,30.24,WNW,293,0.0,0.0,76,0.00,,,0.00,WUHU216HW,2013-03-28 08:27:00,
2013-03-28 04:32:00,26.4,19.7,30.24,WNW,293,0.0,0.0,76,0.00,,,0.00,WUHU216HW,2013-03-28 08:32:00,
2013-03-28 04:37:00,26.4,19.7,30.24,WNW,293,0.0,0.0,76,0.00,,,0.00,WUHU216HW,2013-03-28 08:37:00,
2013-03-28 04:42:00,26.4,19.7,30.25,WNW,293,0.0,0.0,76,0.00,,,0.00,WUHU216HW,2013-03-28 08:42:00,
2013-03-28 04:47:00,26.2,19.6,30.24,WNW,293,0.0,0.0,76,0.00,,,0.00,WUHU216HW,2013-03-28 08:47:00,
2013-03-28 04:52:00,26.2,19.6,30.24,WNW,293,0.0,0.0,76,0.00,,,0.00,WUHU216HW,2013-03-28 08:52:00,
2013-03-28 04:57:00,25.8,19.2,30.24,WNW,293,0.0,0.0,76,0.00,,,0.00,WUHU216HW,2013-03-28 08:57:00,
2013-03-28 05:02:00,25.8,19.5,30.24,WNW,293,0.0,0.0,77,0.00,,,0.00,WUHU216HW,2013-03-28 09:02:00,
2013-03-28 05:07:00,25.7,19.4,30.24,WNW,293,0.0,0.0,77,0.00,,,0.00,WUHU216HW,2013-03-28 09:07:00,
2013-03-28 05:12:00,25.7,19.4,30.24,WNW,293,0.0,0.0,77,0.00,,,0.00,WUHU216HW,2013-03-28 09:12:00,
2013-03-28 05:17:00,25.5,19.2,30.24,WNW,293,0.0,0.0,77,0.00,,,0.00,WUHU216HW,2013-03-28 09:17:00,
2013-03-28 05:22:00,25.5,19.2,30.24,WNW,293,0.0,0.0,77,0.00,,,0.00,WUHU216HW,2013-03-28 09:22:00,
2013-03-28 05:27:00,25.5,19.2,30.24,WNW,293,0.0,0.0,77,0.00,,,0.00,WUHU216HW,2013-03-28 09:27:00,
2013-03-28 05:32:00,25.3,19.0,30.25,WNW,293,0.0,0.0,77,0.00,,,0.00,WUHU216HW,2013-03-28 09:32:00,
2013-03-28 05:37:00,25.3,19.0,30.25,WNW,293,0.0,0.0,77,0.00,,,0.00,WUHU216HW,2013-03-28 09:37:00,
2013-03-28 05:42:00,25.1,18.9,30.25,WNW,293,0.0,0.0,77,0.00,,,0.00,WUHU216HW,2013-03-28 09:42:00,
2013-03-28 05:47:00,25.1,18.9,30.25,WNW,293,0.0,0.0,77,0.00,,,0.00,WUHU216HW,2013-03-28 09:47:00,
2013-03-28 05:52:00,24.9,18.7,30.25,WNW,293,0.0,0.0,77,0.00,,,0.00,WUHU216HW,2013-03-28 09:52:00,
2013-03-28 05:57:00,24.9,18.7,30.25,WNW,293,0.0,0.0,77,0.00,,,0.00,WUHU216HW,2013-03-28 09:57:00,
2013-03-28 06:02:00,24.9,18.7,30.25,WNW,293,0.0,0.0,77,0.00,,,0.00,WUHU216HW,2013-03-28 10:02:00,
2013-03-28 06:07:00,24.8,18.6,30.25,WNW,293,0.0,0.0,77,0.00,,,0.00,WUHU216HW,2013-03-28 10:07:00,
2013-03-28 06:12:00,24.6,18.4,30.25,WNW,293,0.0,0.0,77,0.00,,,0.00,WUHU216HW,2013-03-28 10:12:00,
2013-03-28 06:17:00,24.6,18.4,30.25,WNW,293,0.0,0.0,77,0.00,,,0.00,WUHU216HW,2013-03-28 10:17:00,
2013-03-28 06:22:00,24.6,18.4,30.25,WNW,293,0.0,0.0,77,0.00,,,0.00,WUHU216HW,2013-03-28 10:22:00,
2013-03-28 06:27:00,24.6,18.4,30.25,WNW,293,0.0,0.0,77,0.00,,,0.00,WUHU216HW,2013-03-28 10:27:00,
2013-03-28 06:32:00,24.6,18.4,30.25,WNW,293,0.0,0.0,77,0.00,,,0.00,WUHU216HW,2013-03-28 10:32:00,
2013-03-28 06:37:00,24.4,18.2,30.26,WNW,293,0.0,0.0,77,0.00,,,0.00,WUHU216HW,2013-03-28 10:37:00,
2013-03-28 06:42:00,24.4,18.2,30.25,WNW,293,0.0,0.0,77,0.00,,,0.00,WUHU216HW,2013-03-28 10:42:00,
2013-03-28 06:47:00,24.4,18.2,30.25,WNW,293,0.0,0.0,77,0.00,,,0.00,WUHU216HW,2013-03-28 10:47:00,
2013-03-28 06:52:00,24.4,18.2,30.26,WNW,293,0.0,0.0,77,0.00,,,0.00,WUHU216HW,2013-03-28 10:52:00,
2013-03-28 06:57:00,24.2,18.0,30.26,WNW,293,0.0,0.0,77,0.00,,,0.00,WUHU216HW,2013-03-28 10:57:00,
2013-03-28 07:02:00,24.0,17.9,30.26,WNW,293,0.0,0.0,77,0.00,,,0.00,WUHU216HW,2013-03-28 11:02:00,
2013-03-28 07:07:00,24.0,18.2,30.26,WNW,293,0.0,0.0,78,0.00,,,0.00,WUHU216HW,2013-03-28 11:07:00,
2013-03-28 07:12:00,24.0,18.2,30.26,WNW,293,0.0,0.0,78,0.00,,,0.00,WUHU216HW,2013-03-28 11:12:00,
2013-03-28 07:17:00,23.9,18.0,30.26,WNW,293,0.0,0.0,78,0.00,,,0.00,WUHU216HW,2013-03-28 11:17:00,
2013-03-28 07:22:00,23.9,18.0,30.26,WNW,293,0.0,0.0,78,0.00,,,0.00,WUHU216HW,2013-03-28 11:22:00,
2013-03-28 07:27:00,23.9,18.0,30.26,WNW,293,0.0,0.0,78,0.00,,,0.00,WUHU216HW,2013-03-28 11:27:00,
2013-03-28 07:32:00,23.9,18.0,30.26,WNW,293,0.0,0.0,78,0.00,,,0.00,WUHU216HW,2013-03-28 11:32:00,
2013-03-28 07:37:00,23.7,17.8,30.27,WNW,293,0.0,0.0,78,0.00,,,0.00,WUHU216HW,2013-03-28 11:37:00,
2013-03-28 07:42:00,23.7,17.8,30.27,WNW,293,0.0,0.0,78,0.00,,,0.00,WUHU216HW,2013-03-28 11:42:00,
2013-03-28 07:47:00,23.7,17.8,30.27,WNW,293,0.0,0.0,78,0.00,,,0.00,WUHU216HW,2013-03-28 11:47:00,
2013-03-28 07:52:00,23.5,17.6,30.27,WNW,293,0.0,0.0,78,0.00,,,0.00,WUHU216HW,2013-03-28 11:52:00,
2013-03-28 07:57:00,23.5,17.6,30.27,WNW,293,0.0,0.0,78,0.00,,,0.00,WUHU216HW,2013-03-28 11:57:00,
2013-03-28 08:02:00,23.5,17.3,30.27,WNW,293,0.0,0.0,77,0.00,,,0.00,WUHU216HW,2013-03-28 12:02:00,
2013-03-28 08:07:00,23.5,17.3,30.27,WNW,293,0.0,0.0,77,0.00,,,0.00,WUHU216HW,2013-03-28 12:07:00,
2013-03-28 08:12:00,23.5,17.6,30.27,WNW,293,0.0,0.0,78,0.00,,,0.00,WUHU216HW,2013-03-28 12:12:00,
2013-03-28 08:17:00,23.5,17.6,30.27,WNW,293,0.0,0.0,78,0.00,,,0.00,WUHU216HW,2013-03-28 12:17:00,
2013-03-28 08:22:00,23.5,17.6,30.27,WNW,293,0.0,0.0,78,0.00,,,0.00,WUHU216HW,2013-03-28 12:22:00,
2013-03-28 08:27:00,23.5,17.6,30.28,WNW,293,0.0,0.0,78,0.00,,,0.00,WUHU216HW,2013-03-28 12:27:00,
2013-03-28 08:32:00,23.5,17.6,30.28,WNW,293,0.0,0.0,78,0.00,,,0.00,WUHU216HW,2013-03-28 12:32:00,
2013-03-28 08:37:00,23.7,18.0,30.28,WNW,293,0.0,0.0,78,0.00,,,0.00,WUHU216HW,2013-03-28 12:37:00,
2013-03-28 08:42:00,24.0,18.2,30.28,WNW,293,0.0,0.0,78,0.00,,,0.00,WUHU216HW,2013-03-28 12:42:00,
2013-03-28 08:47:00,24.4,18.5,30.28,WNW,293,0.0,0.0,78,0.00,,,0.00,WUHU216HW,2013-03-28 12:47:00,
2013-03-28 08:52:00,24.6,19.0,30.28,WNW,293,0.0,0.0,79,0.00,,,0.00,WUHU216HW,2013-03-28 12:52:00,
2013-03-28 08:57:00,24.9,19.4,30.28,WNW,293,0.0,0.0,79,0.00,,,0.00,WUHU216HW,2013-03-28 12:57:00,
2013-03-28 09:02:00,25.3,19.7,30.28,WNW,293,0.0,0.0,79,0.00,,,0.00,WUHU216HW,2013-03-28 13:02:00,
2013-03-28 09:07:00,25.7,20.0,30.28,WNW,293,0.0,0.0,79,0.00,,,0.00,WUHU216HW,2013-03-28 13:07:00,
2013-03-28 09:12:00,26.2,20.5,30.28,WNW,293,0.0,0.0,79,0.00,,,0.00,WUHU216HW,2013-03-28 13:12:00,
2013-03-28 09:17:00,26.4,20.7,30.29,WNW,293,0.0,0.0,79,0.00,,,0.00,WUHU216HW,2013-03-28 13:17:00,
2013-03-28 09:22:00,26.9,21.2,30.29,WNW,293,0.0,0.0,79,0.00,,,0.00,WUHU216HW,2013-03-28 13:22:00,
2013-03-28 09:27:00,27.1,21.4,30.29,WNW,293,0.0,0.0,79,0.00,,,0.00,WUHU216HW,2013-03-28 13:27:00,
2013-03-28 09:32:00,27.6,21.9,30.29,WNW,293,0.0,0.0,79,0.00,,,0.00,WUHU216HW,2013-03-28 13:32:00,
2013-03-28 09:37:00,28.2,22.8,30.29,WNW,293,0.0,0.0,80,0.00,,,0.00,WUHU216HW,2013-03-28 13:37:00,
2013-03-28 09:42:00,28.7,23.3,30.29,WNW,293,0.0,0.0,80,0.00,,,0.00,WUHU216HW,2013-03-28 13:42:00,
2013-03-28 09:47:00,29.1,23.3,30.29,WNW,293,0.0,0.0,79,0.00,,,0.00,WUHU216HW,2013-03-28 13:47:00,
2013-03-28 09:52:00,29.8,24.1,30.29,WNW,293,0.0,0.0,79,0.00,,,0.00,WUHU216HW,2013-03-28 13:52:00,
2013-03-28 09:57:00,30.0,24.2,30.29,WNW,293,0.0,0.0,79,0.00,,,0.00,WUHU216HW,2013-03-28 13:57:00,
2013-03-28 10:02:00,30.5,24.8,30.29,WNW,293,0.0,0.0,79,0.00,,,0.00,WUHU216HW,2013-03-28 14:02:00,
2013-03-28 10:07:00,31.2,25.5,30.29,WNW,293,0.0,0.0,79,0.00,,,0.00,WUHU216HW,2013-03-28 14:07:00,
2013-03-28 10:12:00,31.8,26.0,30.29,West,270,0.0,0.0,79,0.00,,,0.00,WUHU216HW,2013-03-28 14:12:00,
2013-03-28 10:17:00,32.5,26.7,30.29,WSW,248,0.0,0.0,79,0.00,,,0.00,WUHU216HW,2013-03-28 14:17:00,
2013-03-28 10:22:00,33.4,27.2,30.29,WSW,248,0.0,0.0,78,0.00,,,0.00,WUHU216HW,2013-03-28 14:22:00,
2013-03-28 10:27:00,34.1,27.9,30.29,SW,225,0.0,0.0,78,0.00,,,0.00,WUHU216HW,2013-03-28 14:27:00,
2013-03-28 10:32:00,34.3,28.1,30.29,NNW,338,0.0,0.0,78,0.00,,,0.00,WUHU216HW,2013-03-28 14:32:00,
2013-03-28 10:37:00,35.2,28.6,30.29,NE,45,0.0,0.0,77,0.00,,,0.00,WUHU216HW,2013-03-28 14:37:00,
2013-03-28 10:42:00,35.4,28.8,30.29,NE,45,0.0,0.0,77,0.00,,,0.00,WUHU216HW,2013-03-28 14:42:00,
2013-03-28 10:47:00,35.7,28.9,30.29,ENE,68,0.0,0.0,76,0.00,,,0.00,WUHU216HW,2013-03-28 14:47:00,
2013-03-28 10:52:00,36.1,28.9,30.29,East,90,0.0,0.0,75,0.00,,,0.00,WUHU216HW,2013-03-28 14:52:00,
2013-03-28 10:57:00,36.5,28.9,30.29,NE,45,0.0,0.0,74,0.00,,,0.00,WUHU216HW,2013-03-28 14:57:00,
2013-03-28 11:02:00,37.0,29.5,30.29,NNE,23,1.5,4.0,74,0.00,,,0.00,WUHU216HW,2013-03-28 15:02:00,
2013-03-28 11:07:00,37.5,29.7,30.29,NNE,23,0.0,4.0,73,0.00,,,0.00,WUHU216HW,2013-03-28 15:07:00,
2013-03-28 11:12:00,37.9,29.3,30.30,NW,315,1.3,1.3,71,0.00,,,0.00,WUHU216HW,2013-03-28 15:12:00,
2013-03-28 11:17:00,38.3,29.7,30.30,North,0,0.0,3.5,71,0.00,,,0.00,WUHU216HW,2013-03-28 15:17:00,
2013-03-28 11:22:00,38.4,29.1,30.30,NE,45,0.0,5.5,69,0.00,,,0.00,WUHU216HW,2013-03-28 15:22:00,
2013-03-28 11:27:00,38.4,29.1,30.30,NNW,338,5.8,6.2,69,0.00,,,0.00,WUHU216HW,2013-03-28 15:27:00,
2013-03-28 11:32:00,38.6,28.9,30.29,North,0,0.0,6.2,68,0.00,,,0.00,WUHU216HW,2013-03-28 15:32:00,
2013-03-28 11:37:00,39.2,29.4,30.29,NE,45,0.8,5.8,68,0.00,,,0.00,WUHU216HW,2013-03-28 15:37:00,
2013-03-28 11:43:00,39.5,29.4,30.29,NE,45,0.0,0.8,67,0.00,,,0.00,WUHU216HW,2013-03-28 15:43:00,
2013-03-28 11:48:00,39.9,29.7,30.29,SSE,158,0.0,0.8,67,0.00,,,0.00,WUHU216HW,2013-03-28 15:48:00,
2013-03-28 11:53:00,40.4,29.9,30.29,SW,225,0.0,5.1,66,0.00,,,0.00,WUHU216HW,2013-03-28 15:53:00,
2013-03-28 11:58:00,40.8,30.3,30.29,NE,45,0.0,5.1,66,0.00,,,0.00,WUHU216HW,2013-03-28 15:58:00,
2013-03-28 12:03:00,41.1,30.2,30.29,NNW,338,0.0,0.0,65,0.00,,,0.00,WUHU216HW,2013-03-28 16:03:00,
2013-03-28 12:08:00,41.5,30.6,30.29,NNW,338,8.0,8.0,65,0.00,,,0.00,WUHU216HW,2013-03-28 16:08:00,
2013-03-28 12:13:00,41.7,30.0,30.29,NNW,338,4.0,8.0,63,0.00,,,0.00,WUHU216HW,2013-03-28 16:13:00,
2013-03-28 12:18:00,41.9,29.8,30.29,NW,315,8.9,8.9,62,0.00,,,0.00,WUHU216HW,2013-03-28 16:18:00,
2013-03-28 12:23:00,42.0,29.9,30.29,NNE,23,0.0,8.9,62,0.00,,,0.00,WUHU216HW,2013-03-28 16:23:00,
2013-03-28 12:28:00,42.6,30.4,30.28,South,180,0.0,4.2,62,0.00,,,0.00,WUHU216HW,2013-03-28 16:28:00,
2013-03-28 12:33:00,43.1,30.5,30.28,North,0,0.0,0.0,61,0.00,,,0.00,WUHU216HW,2013-03-28 16:33:00,
2013-03-28 12:38:00,43.3,30.3,30.28,NNW,338,0.0,6.0,60,0.00,,,0.00,WUHU216HW,2013-03-28 16:38:00,
2013-03-28 12:43:00,43.5,30.1,30.28,ENE,68,0.0,6.0,59,0.00,,,0.00,WUHU216HW,2013-03-28 16:43:00,
2013-03-28 12:48:00,43.8,30.9,30.28,SE,135,0.0,0.0,60,0.00,,,0.00,WUHU216HW,2013-03-28 16:48:00,
2013-03-28 12:53:00,44.4,31.0,30.28,SSE,158,3.3,5.3,59,0.00,,,0.00,WUHU216HW,2013-03-28 16:53:00,
2013-03-28 12:58:00,44.9,31.5,30.28,East,90,0.0,5.3,59,0.00,,,0.00,WUHU216HW,2013-03-28 16:58:00,
2013-03-28 13:03:00,45.1,31.6,30.28,SSE,158,0.0,3.3,59,0.00,,,0.00,WUHU216HW,2013-03-28 17:03:00,
2013-03-28 13:08:00,46.0,32.4,30.28,SSW,203,0.0,0.0,59,0.00,,,0.00,WUHU216HW,2013-03-28 17:08:00,
2013-03-28 13:13:00,46.2,32.1,30.27,NW,315,0.2,1.1,58,0.00,,,0.00,WUHU216HW,2013-03-28 17:13:00,
2013-03-28 13:18:00,46.5,32.0,30.27,NNW,338,0.0,3.3,57,0.00,,,0.00,WUHU216HW,2013-03-28 17:18:00,
2013-03-28 13:23:00,46.5,31.6,30.27,SE,135,3.1,4.0,56,0.00,,,0.00,WUHU216HW,2013-03-28 17:23:00,
2013-03-28 13:28:00,46.7,31.8,30.27,WNW,293,4.4,4.4,56,0.00,,,0.00,WUHU216HW,2013-03-28 17:28:00,
2013-03-28 13:33:00,46.9,31.5,30.27,NW,315,0.0,10.5,55,0.00,,,0.00,WUHU216HW,2013-03-28 17:33:00,
2013-03-28 13:38:00,47.3,31.8,30.27,ENE,68,0.0,10.5,55,0.00,,,0.00,WUHU216HW,2013-03-28 17:38:00,
2013-03-28 13:43:00,47.4,31.1,30.27,NW,315,0.0,0.0,53,0.00,,,0.00,WUHU216HW,2013-03-28 17:43:00,
2013-03-28 13:48:00,47.6,31.2,30.27,West,270,0.0,2.9,53,0.00,,,0.00,WUHU216HW,2013-03-28 17:48:00,
2013-03-28 13:53:00,48.0,31.6,30.27,WNW,293,0.0,6.2,53,0.00,,,0.00,WUHU216HW,2013-03-28 17:53:00,
2013-03-28 13:58:00,48.3,31.9,30.27,North,0,6.4,6.4,53,0.00,,,0.00,WUHU216HW,2013-03-28 17:58:00,
2013-03-28 14:03:00,48.5,32.1,30.26,ENE,68,0.0,6.4,53,0.00,,,0.00,WUHU216HW,2013-03-28 18:03:00,
2013-03-28 14:08:00,49.1,32.1,30.26,SSE,158,1.3,6.4,52,0.00,,,0.00,WUHU216HW,2013-03-28 18:08:00,
2013-03-28 14:13:00,49.2,31.9,30.26,WSW,248,0.0,1.3,51,0.00,,,0.00,WUHU216HW,2013-03-28 18:13:00,
2013-03-28 14:18:00,49.6,32.2,30.26,NW,315,1.5,3.3,51,0.00,,,0.00,WUHU216HW,2013-03-28 18:18:00,
2013-03-28 14:23:00,49.8,32.0,30.26,NNW,338,2.9,7.8,50,0.00,,,0.00,WUHU216HW,2013-03-28 18:23:00,
2013-03-28 14:28:00,49.8,32.0,30.25,North,0,0.0,7.8,50,0.00,,,0.00,WUHU216HW,2013-03-28 18:28:00,
2013-03-28 14:33:00,50.3,32.9,30.25,North,0,0.0,2.9,51,0.00,,,0.00,WUHU216HW,2013-03-28 18:33:00,
2013-03-28 14:38:00,50.7,32.8,30.25,South,180,0.0,12.0,50,0.00,,,0.00,WUHU216HW,2013-03-28 18:38:00,
2013-03-28 14:43:00,50.7,32.2,30.25,SSE,158,0.0,12.0,49,0.00,,,0.00,WUHU216HW,2013-03-28 18:43:00,
2013-03-28 14:48:00,50.7,32.2,30.25,SSE,158,0.0,0.0,49,0.00,,,0.00,WUHU216HW,2013-03-28 18:48:00,
2013-03-28 14:53:00,51.0,32.0,30.24,NW,315,1.1,2.0,48,0.00,,,0.00,WUHU216HW,2013-03-28 18:53:00,
2013-03-28 14:58:00,51.4,32.9,30.24,North,0,0.8,2.0,49,0.00,,,0.00,WUHU216HW,2013-03-28 18:58:00,
2013-03-28 15:03:00,51.6,32.5,30.24,NW,315,12.9,12.9,48,0.00,,,0.00,WUHU216HW,2013-03-28 19:03:00,
2013-03-28 15:08:00,51.8,32.1,30.24,SSW,203,4.6,12.9,47,0.00,,,0.00,WUHU216HW,2013-03-28 19:08:00,
2013-03-28 15:13:00,51.6,31.9,30.24,North,0,0.0,7.3,47,0.00,,,0.00,WUHU216HW,2013-03-28 19:13:00,
2013-03-28 15:18:00,51.8,32.6,30.24,NE,45,0.0,7.3,48,0.00,,,0.00,WUHU216HW,2013-03-28 19:18:00,
2013-03-28 15:23:00,52.1,32.4,30.24,NW,315,4.6,7.3,47,0.00,,,0.00,WUHU216HW,2013-03-28 19:23:00,
2013-03-28 15:28:00,52.1,32.4,30.23,SSE,158,0.0,7.3,47,0.00,,,0.00,WUHU216HW,2013-03-28 19:28:00,
2013-03-28 15:33:00,52.1,31.8,30.23,NW,315,4.0,10.9,46,0.00,,,0.00,WUHU216HW,2013-03-28 19:33:00,
2013-03-28 15:38:00,52.1,31.8,30.23,South,180,0.0,10.9,46,0.00,,,0.00,WUHU216HW,2013-03-28 19:38:00,
2013-03-28 15:43:00,52.1,31.8,30.22,SSW,203,0.0,4.9,46,0.00,,,0.00,WUHU216HW,2013-03-28 19:43:00,
2013-03-28 15:48:00,52.1,31.8,30.22,NNE,23,0.0,4.9,46,0.00,,,0.00,WUHU216HW,2013-03-28 19:48:00,
2013-03-28 15:53:00,52.3,32.0,30.22,SE,135,0.0,0.6,46,0.00,,,0.00,WUHU216HW,2013-03-28 19:53:00,
2013-03-28 15:58:00,52.3,32.0,30.22,ESE,113,0.0,0.6,46,0.00,,,0.00,WUHU216HW,2013-03-28 19:58:00,
2013-03-28 16:03:00,52.3,32.0,30.22,SE,135,0.0,0.0,46,0.00,,,0.00,WUHU216HW,2013-03-28 20:03:00,
2013-03-28 16:08:00,52.7,31.8,30.22,WSW,248,0.0,2.4,45,0.00,,,0.00,WUHU216HW,2013-03-28 20:08:00,
2013-03-28 16:13:00,52.8,31.9,30.22,West,270,3.5,3.5,45,0.00,,,0.00,WUHU216HW,2013-03-28 20:13:00,
2013-03-28 16:18:00,52.8,31.9,30.21,SW,225,0.0,11.4,45,0.00,,,0.00,WUHU216HW,2013-03-28 20:18:00,
2013-03-28 16:23:00,52.8,31.9,30.21,NW,315,6.0,11.4,45,0.00,,,0.00,WUHU216HW,2013-03-28 20:23:00,
2013-03-28 16:28:00,53.2,32.8,30.21,NNE,23,1.5,6.0,46,0.00,,,0.00,WUHU216HW,2013-03-28 20:28:00,
2013-03-28 16:33:00,53.4,32.4,30.21,NW,315,0.0,6.0,45,0.00,,,0.00,WUHU216HW,2013-03-28 20:33:00,
2013-03-28 16:38:00,53.4,32.4,30.21,East,90,0.0,1.5,45,0.00,,,0.00,WUHU216HW,2013-03-28 20:38:00,
2013-03-28 16:43:00,53.4,32.4,30.21,South,180,0.0,0.0,45,0.00,,,0.00,WUHU216HW,2013-03-28 20:43:00,
2013-03-28 16:48:00,53.4,32.4,30.20,SSW,203,0.0,0.0,45,0.00,,,0.00,WUHU216HW,2013-03-28 20:48:00,
2013-03-28 16:53:00,53.4,31.9,30.20,SSE,158,0.0,11.8,44,0.00,,,0.00,WUHU216HW,2013-03-28 20:53:00,
2013-03-28 16:58:00,53.6,32.0,30.20,SSW,203,0.0,11.8,44,0.00,,,0.00,WUHU216HW,2013-03-28 20:58:00,
2013-03-28 17:03:00,53.4,31.9,30.20,WNW,293,10.0,10.0,44,0.00,,,0.00,WUHU216HW,2013-03-28 21:03:00,
2013-03-28 17:08:00,53.4,31.9,30.20,West,270,0.0,10.0,44,0.00,,,0.00,WUHU216HW,2013-03-28 21:08:00,
2013-03-28 17:13:00,53.4,31.9,30.20,NE,45,0.0,5.5,44,0.00,,,0.00,WUHU216HW,2013-03-28 21:13:00,
2013-03-28 17:18:00,53.7,32.2,30.20,NW,315,0.0,6.2,44,0.00,,,0.00,WUHU216HW,2013-03-28 21:18:00,
2013-03-28 17:23:00,54.1,32.5,30.20,SW,225,6.7,6.7,44,0.00,,,0.00,WUHU216HW,2013-03-28 21:23:00,
2013-03-28 17:28:00,54.3,32.1,30.20,ENE,68,0.0,6.7,43,0.00,,,0.00,WUHU216HW,2013-03-28 21:28:00,
2013-03-28 17:33:00,54.5,32.3,30.20,North,0,0.0,6.7,43,0.00,,,0.00,WUHU216HW,2013-03-28 21:33:00,
2013-03-28 17:38:00,54.6,32.4,30.19,SSW,203,0.0,4.4,43,0.00,,,0.00,WUHU216HW,2013-03-28 21:38:00,
2013-03-28 17:43:00,54.8,32.6,30.20,West,270,0.0,4.2,43,0.00,,,0.00,WUHU216HW,2013-03-28 21:43:00,
2013-03-28 17:48:00,55.0,32.8,30.20,NW,315,0.0,0.0,43,0.00,,,0.00,WUHU216HW,2013-03-28 21:48:00,
2013-03-28 17:53:00,55.2,32.9,30.19,South,180,6.4,6.4,43,0.00,,,0.00,WUHU216HW,2013-03-28 21:53:00,
2013-03-28 17:58:00,54.8,32.0,30.19,South,180,0.0,6.4,42,0.00,,,0.00,WUHU216HW,2013-03-28 21:58:00,
2013-03-28 18:03:00,54.6,31.9,30.19,SSE,158,0.0,6.4,42,0.00,,,0.00,WUHU216HW,2013-03-28 22:03:00,
2013-03-28 18:08:00,54.8,32.0,30.19,West,270,0.0,1.5,42,0.00,,,0.00,WUHU216HW,2013-03-28 22:08:00,
2013-03-28 18:13:00,55.4,32.5,30.19,WNW,293,6.2,6.2,42,0.00,,,0.00,WUHU216HW,2013-03-28 22:13:00,
2013-03-28 18:18:00,55.5,32.7,30.19,West,270,0.0,6.2,42,0.00,,,0.00,WUHU216HW,2013-03-28 22:18:00,
2013-03-28 18:23:00,55.5,32.7,30.19,WNW,293,0.0,6.2,42,0.00,,,0.00,WUHU216HW,2013-03-28 22:23:00,
2013-03-28 18:28:00,55.5,32.7,30.19,North,0,0.0,3.5,42,0.00,,,0.00,WUHU216HW,2013-03-28 22:28:00,
2013-03-28 18:33:00,55.7,32.9,30.19,West,270,0.4,3.5,42,0.00,,,0.00,WUHU216HW,2013-03-28 22:33:00,
2013-03-28 18:38:00,55.5,32.1,30.19,NW,315,0.0,0.4,41,0.00,,,0.00,WUHU216HW,2013-03-28 22:38:00,
2013-03-28 18:43:00,55.5,32.1,30.19,NW,315,0.0,0.4,41,0.00,,,0.00,WUHU216HW,2013-03-28 22:43:00,
2013-03-28 18:48:00,55.5,32.7,30.19,NNE,23,1.1,1.1,42,0.00,,,0.00,WUHU216HW,2013-03-28 22:48:00,
2013-03-28 18:53:00,55.5,32.7,30.19,NW,315,2.0,2.0,42,0.00,,,0.00,WUHU216HW,2013-03-28 22:53:00,
2013-03-28 18:58:00,55.4,32.5,30.19,NNW,338,0.0,2.0,42,0.00,,,0.00,WUHU216HW,2013-03-28 22:58:00,
2013-03-28 19:03:00,55.2,32.4,30.19,North,0,0.0,0.0,42,0.00,,,0.00,WUHU216HW,2013-03-28 23:03:00,
2013-03-28 19:08:00,55.0,32.2,30.19,WNW,293,4.2,4.2,42,0.00,,,0.00,WUHU216HW,2013-03-28 23:08:00,
2013-03-28 19:13:00,54.6,31.9,30.19,NW,315,2.6,4.2,42,0.00,,,0.00,WUHU216HW,2013-03-28 23:13:00,
2013-03-28 19:18:00,54.1,31.4,30.19,NW,315,0.0,2.6,42,0.00,,,0.00,WUHU216HW,2013-03-28 23:18:00,
2013-03-28 19:23:00,53.7,31.1,30.19,West,270,0.0,2.6,42,0.00,,,0.00,WUHU216HW,2013-03-28 23:23:00,
2013-03-28 19:28:00,53.4,31.3,30.19,West,270,0.0,0.0,43,0.00,,,0.00,WUHU216HW,2013-03-28 23:28:00,
2013-03-28 19:33:00,53.2,31.1,30.19,NW,315,4.0,4.0,43,0.00,,,0.00,WUHU216HW,2013-03-28 23:33:00,
2013-03-28 19:38:00,52.8,30.8,30.19,West,270,0.0,4.0,43,0.00,,,0.00,WUHU216HW,2013-03-28 23:38:00,
2013-03-28 19:43:00,52.5,30.5,30.19,West,270,0.0,0.0,43,0.00,,,0.00,WUHU216HW,2013-03-28 23:43:00,
2013-03-28 19:48:00,52.5,31.1,30.20,West,270,0.0,0.0,44,0.00,,,0.00,WUHU216HW,2013-03-28 23:48:00,
2013-03-28 19:53:00,52.3,30.9,30.19,West,270,0.0,0.0,44,0.00,,,0.00,WUHU216HW,2013-03-28 23:53:00,
2013-03-28 19:58:00,51.9,31.1,30.19,West,270,0.0,0.0,45,0.00,,,0.00,WUHU216HW,2013-03-28 23:58:00,
2013-03-28 20:03:00,51.6,30.8,30.20,West,270,0.0,0.0,45,0.00,,,0.00,WUHU216HW,2013-03-29 00:03:00,
2013-03-28 20:08:00,51.4,30.6,30.20,West,270,0.0,0.0,45,0.00,,,0.00,WUHU216HW,2013-03-29 00:08:00,
2013-03-28 20:13:00,50.7,30.5,30.20,West,270,0.0,0.0,46,0.00,,,0.00,WUHU216HW,2013-03-29 00:13:00,
2013-03-28 20:18:00,50.3,30.8,30.20,West,270,0.0,0.0,47,0.00,,,0.00,WUHU216HW,2013-03-29 00:18:00,
2013-03-28 20:23:00,49.8,30.8,30.20,West,270,0.0,0.0,48,0.00,,,0.00,WUHU216HW,2013-03-29 00:23:00,
2013-03-28 20:28:00,49.2,30.3,30.21,West,270,0.0,0.0,48,0.00,,,0.00,WUHU216HW,2013-03-29 00:28:00,
2013-03-28 20:33:00,48.9,30.5,30.20,West,270,0.0,0.0,49,0.00,,,0.00,WUHU216HW,2013-03-29 00:33:00,
2013-03-28 20:38:00,48.5,30.1,30.20,West,270,0.0,0.0,49,0.00,,,0.00,WUHU216HW,2013-03-29 00:38:00,
2013-03-28 20:43:00,47.8,30.0,30.21,West,270,0.0,0.0,50,0.00,,,0.00,WUHU216HW,2013-03-29 00:43:00,
2013-03-28 20:48:00,47.4,30.1,30.20,West,270,0.0,0.0,51,0.00,,,0.00,WUHU216HW,2013-03-29 00:48:00,
2013-03-28 20:53:00,47.1,29.8,30.21,West,270,0.0,0.0,51,0.00,,,0.00,WUHU216HW,2013-03-29 00:53:00,
2013-03-28 20:58:00,46.2,29.4,30.20,West,270,0.0,0.0,52,0.00,,,0.00,WUHU216HW,2013-03-29 00:58:00,
2013-03-28 21:03:00,46.0,29.3,30.21,West,270,0.0,0.0,52,0.00,,,0.00,WUHU216HW,2013-03-29 01:03:00,
2013-03-28 21:08:00,45.6,29.4,30.20,West,270,0.0,0.0,53,0.00,,,0.00,WUHU216HW,2013-03-29 01:08:00,
2013-03-28 21:13:00,45.1,29.4,30.20,West,270,0.0,0.0,54,0.00,,,0.00,WUHU216HW,2013-03-29 01:13:00,
2013-03-28 21:18:00,45.1,29.4,30.20,West,270,0.0,0.0,54,0.00,,,0.00,WUHU216HW,2013-03-29 01:18:00,
2013-03-28 21:23:00,44.7,29.1,30.21,West,270,0.0,0.0,54,0.00,,,0.00,WUHU216HW,2013-03-29 01:23:00,
2013-03-28 21:28:00,44.2,29.0,30.21,West,270,0.0,0.0,55,0.00,,,0.00,WUHU216HW,2013-03-29 01:28:00,
2013-03-28 21:33:00,43.7,28.5,30.21,West,270,0.0,0.0,55,0.00,,,0.00,WUHU216HW,2013-03-29 01:33:00,
2013-03-28 21:38:00,43.5,28.7,30.21,West,270,0.0,0.0,56,0.00,,,0.00,WUHU216HW,2013-03-29 01:38:00,
2013-03-28 21:43:00,43.1,28.8,30.21,West,270,0.0,0.0,57,0.00,,,0.00,WUHU216HW,2013-03-29 01:43:00,
2013-03-28 21:48:00,42.6,28.3,30.22,West,270,0.0,0.0,57,0.00,,,0.00,WUHU216HW,2013-03-29 01:48:00,
2013-03-28 21:53:00,42.4,28.6,30.22,West,270,0.0,0.0,58,0.00,,,0.00,WUHU216HW,2013-03-29 01:53:00,
2013-03-28 21:58:00,41.7,27.9,30.22,West,270,0.0,0.0,58,0.00,,,0.00,WUHU216HW,2013-03-29 01:58:00,
2013-03-28 22:03:00,41.5,28.2,30.21,West,270,0.0,0.0,59,0.00,,,0.00,WUHU216HW,2013-03-29 02:03:00,
2013-03-28 22:08:00,41.1,27.9,30.21,West,270,0.0,0.0,59,0.00,,,0.00,WUHU216HW,2013-03-29 02:08:00,
2013-03-28 22:13:00,40.8,28.0,30.21,West,270,0.0,0.0,60,0.00,,,0.00,WUHU216HW,2013-03-29 02:13:00,
2013-03-28 22:18:00,40.6,27.8,30.21,West,270,0.0,0.0,60,0.00,,,0.00,WUHU216HW,2013-03-29 02:18:00,
2013-03-28 22:23:00,40.2,27.5,30.21,West,270,0.0,0.0,60,0.00,,,0.00,WUHU216HW,2013-03-29 02:23:00,
2013-03-28 22:28:00,40.1,27.3,30.22,West,270,0.0,0.0,60,0.00,,,0.00,WUHU216HW,2013-03-29 02:28:00,
2013-03-28 22:33:00,39.9,27.1,30.23,West,270,0.0,0.0,60,0.00,,,0.00,WUHU216HW,2013-03-29 02:33:00,
2013-03-28 22:38:00,39.7,27.3,30.22,West,270,0.0,0.0,61,0.00,,,0.00,WUHU216HW,2013-03-29 02:38:00,
2013-03-28 22:43:00,39.3,26.9,30.22,West,270,0.0,0.0,61,0.00,,,0.00,WUHU216HW,2013-03-29 02:43:00,
2013-03-28 22:48:00,39.2,26.7,30.23,West,270,0.0,0.0,61,0.00,,,0.00,WUHU216HW,2013-03-29 02:48:00,
2013-03-28 22:53:00,39.0,27.0,30.22,West,270,0.0,0.0,62,0.00,,,0.00,WUHU216HW,2013-03-29 02:53:00,
2013-03-28 22:58:00,38.8,26.8,30.23,West,270,0.0,0.0,62,0.00,,,0.00,WUHU216HW,2013-03-29 02:58:00,
2013-03-28 23:03:00,38.4,26.9,30.23,West,270,0.0,0.0,63,0.00,,,0.00,WUHU216HW,2013-03-29 03:03:00,
2013-03-28 23:08:00,38.3,26.5,30.23,West,270,0.0,0.0,63,0.00,,,0.00,WUHU216HW,2013-03-29 03:08:00,
2013-03-28 23:13:00,37.9,26.4,30.23,West,270,0.0,0.0,63,0.00,,,0.00,WUHU216HW,2013-03-29 03:13:00,
2013-03-28 23:18:00,37.9,26.4,30.23,West,270,0.0,0.0,63,0.00,,,0.00,WUHU216HW,2013-03-29 03:18:00,
2013-03-28 23:23:00,37.5,26.2,30.24,West,270,0.0,0.0,63,0.00,,,0.00,WUHU216HW,2013-03-29 03:23:00,
2013-03-28 23:28:00,37.2,26.1,30.23,West,270,0.0,0.0,64,0.00,,,0.00,WUHU216HW,2013-03-29 03:28:00,
2013-03-28 23:33:00,37.2,26.1,30.23,West,270,0.0,0.0,64,0.00,,,0.00,WUHU216HW,2013-03-29 03:33:00,
2013-03-28 23:38:00,37.0,26.3,30.23,West,270,0.0,0.0,65,0.00,,,0.00,WUHU216HW,2013-03-29 03:38:00,
2013-03-28 23:43:00,36.8,26.1,30.23,West,270,0.0,0.0,65,0.00,,,0.00,WUHU216HW,2013-03-29 03:43:00,
2013-03-28 23:48:00,36.6,26.0,30.23,West,270,0.0,0.0,65,0.00,,,0.00,WUHU216HW,2013-03-29 03:48:00,
2013-03-28 23:53:00,36.1,25.4,30.23,West,270,0.0,0.0,65,0.00,,,0.00,WUHU216HW,2013-03-29 03:53:00,
2013-03-28 23:58:00,35.9,25.3,30.23,West,270,0.0,0.0,65,0.00,,,0.00,WUHU216HW,2013-03-29 03:58:00,